createdAt,value
2017-01-26T00:00:45.320Z,1023.25
2017-01-26T00:01:45.292Z,1023.26
2017-01-26T00:02:45.262Z,1023.21
2017-01-26T00:03:45.236Z,1023.23
2017-01-26T00:04:45.209Z,1023.26
2017-01-26T00:05:45.174Z,1023.24
2017-01-26T00:06:45.149Z,1023.23
2017-01-26T00:07:45.118Z,1023.2
2017-01-26T00:08:45.091Z,1023.19
2017-01-26T00:09:45.062Z,1023.17
2017-01-26T00:10:45.033Z,1023.23
2017-01-26T00:11:45.002Z,1023.19
2017-01-26T00:12:44.976Z,1023.19
2017-01-26T00:13:44.946Z,1023.19
2017-01-26T00:14:44.917Z,1023.13
2017-01-26T00:15:44.888Z,1023.14
2017-01-26T00:16:44.859Z,1023.1
2017-01-26T00:17:44.832Z,1023.08
2017-01-26T00:18:44.806Z,1023.13
2017-01-26T00:19:44.773Z,1023.15
2017-01-26T00:20:44.745Z,1023.11
2017-01-26T00:21:44.721Z,1023.1
2017-01-26T00:22:44.693Z,1023.1
2017-01-26T00:23:44.660Z,1023.07
2017-01-26T00:24:44.632Z,1023.11
2017-01-26T00:25:44.603Z,1023.05
2017-01-26T00:26:44.572Z,1023.01
2017-01-26T00:27:44.543Z,1023.01
2017-01-26T00:28:44.514Z,1023.06
2017-01-26T00:29:44.486Z,1023.06
2017-01-26T00:30:44.457Z,1023.03
2017-01-26T00:31:44.430Z,1023.03
2017-01-26T00:32:44.399Z,1023
2017-01-26T00:33:44.371Z,1023.02
2017-01-26T00:34:44.342Z,1022.98
2017-01-26T00:35:44.315Z,1022.99
2017-01-26T00:36:44.286Z,1022.93
2017-01-26T00:37:44.257Z,1022.91
2017-01-26T00:38:44.229Z,1022.96
2017-01-26T00:39:44.200Z,1022.87
2017-01-26T00:40:44.170Z,1022.93
2017-01-26T00:41:44.145Z,1022.9
2017-01-26T00:42:44.114Z,1022.86
2017-01-26T00:43:44.086Z,1022.85
2017-01-26T00:44:44.056Z,1022.86
2017-01-26T00:45:44.032Z,1022.86
2017-01-26T00:46:44.003Z,1022.89
2017-01-26T00:47:43.988Z,1022.81
2017-01-26T00:48:43.942Z,1022.83
2017-01-26T00:49:43.912Z,1022.79
2017-01-26T00:50:43.885Z,1022.71
2017-01-26T00:51:43.854Z,1022.78
2017-01-26T00:52:43.827Z,1022.69
2017-01-26T00:53:43.805Z,1022.69
2017-01-26T00:54:43.771Z,1022.69
2017-01-26T00:55:43.740Z,1022.71
2017-01-26T00:56:43.712Z,1022.68
2017-01-26T00:57:43.683Z,1022.76
2017-01-26T00:58:43.655Z,1022.73
2017-01-26T00:59:43.626Z,1022.74
2017-01-26T01:00:43.598Z,1022.74
2017-01-26T01:01:43.569Z,1022.7
2017-01-26T01:02:43.539Z,1022.67
2017-01-26T01:03:43.511Z,1022.71
2017-01-26T01:04:43.483Z,1022.7
2017-01-26T01:05:43.454Z,1022.7
2017-01-26T01:06:43.424Z,1022.67
2017-01-26T01:07:43.396Z,1022.72
2017-01-26T01:08:43.375Z,1022.71
2017-01-26T01:09:43.339Z,1022.71
2017-01-26T01:10:43.359Z,1022.63
2017-01-26T01:11:43.279Z,1022.63
2017-01-26T01:12:43.249Z,1022.61
2017-01-26T01:13:43.225Z,1022.58
2017-01-26T01:14:43.195Z,1022.57
2017-01-26T01:15:43.161Z,1022.55
2017-01-26T01:16:43.136Z,1022.52
2017-01-26T01:17:43.109Z,1022.52
2017-01-26T01:18:43.078Z,1022.54
2017-01-26T01:19:43.049Z,1022.47
2017-01-26T01:20:43.021Z,1022.49
2017-01-26T01:21:42.988Z,1022.47
2017-01-26T01:22:42.963Z,1022.53
2017-01-26T01:23:42.933Z,1022.5
2017-01-26T01:24:42.905Z,1022.47
2017-01-26T01:25:42.875Z,1022.49
2017-01-26T01:26:42.846Z,1022.51
2017-01-26T01:27:42.818Z,1022.52
2017-01-26T01:28:42.789Z,1022.5
2017-01-26T01:29:42.760Z,1022.49
2017-01-26T01:30:42.731Z,1022.48
2017-01-26T01:31:42.701Z,1022.45
2017-01-26T01:32:42.674Z,1022.47
2017-01-26T01:33:42.644Z,1022.45
2017-01-26T01:34:42.615Z,1022.44
2017-01-26T01:35:42.585Z,1022.47
2017-01-26T01:36:42.557Z,1022.45
2017-01-26T01:37:42.531Z,1022.47
2017-01-26T01:38:42.500Z,1022.43
2017-01-26T01:39:42.467Z,1022.47
2017-01-26T01:40:42.439Z,1022.41
2017-01-26T01:41:42.410Z,1022.37
2017-01-26T01:42:42.380Z,1022.37
2017-01-26T01:43:42.353Z,1022.34
2017-01-26T01:44:42.324Z,1022.33
2017-01-26T01:45:42.297Z,1022.35
2017-01-26T01:46:42.266Z,1022.36
2017-01-26T01:47:42.236Z,1022.33
2017-01-26T01:48:42.205Z,1022.35
2017-01-26T01:49:42.182Z,1022.35
2017-01-26T01:50:42.148Z,1022.33
2017-01-26T01:51:42.119Z,1022.35
2017-01-26T01:52:42.090Z,1022.31
2017-01-26T01:53:42.061Z,1022.33
2017-01-26T01:54:42.038Z,1022.29
2017-01-26T01:55:42.002Z,1022.29
2017-01-26T01:56:41.970Z,1022.27
2017-01-26T01:57:41.944Z,1022.27
2017-01-26T01:58:41.915Z,1022.26
2017-01-26T01:59:41.885Z,1022.25
2017-01-26T02:00:41.856Z,1022.24
2017-01-26T02:01:41.829Z,1022.25
2017-01-26T02:02:41.822Z,1022.2
2017-01-26T02:03:41.773Z,1022.24
2017-01-26T02:04:41.738Z,1022.21
2017-01-26T02:05:41.710Z,1022.15
2017-01-26T02:06:41.680Z,1022.19
2017-01-26T02:07:41.674Z,1022.15
2017-01-26T02:08:41.923Z,1022.12
2017-01-26T02:09:41.593Z,1022.14
2017-01-26T02:10:41.565Z,1022.15
2017-01-26T02:11:41.535Z,1022.12
2017-01-26T02:12:41.504Z,1022.11
2017-01-26T02:13:41.475Z,1022.07
2017-01-26T02:14:41.445Z,1022.08
2017-01-26T02:15:41.416Z,1022.03
2017-01-26T02:16:41.385Z,1022.09
2017-01-26T02:17:41.363Z,1022.03
2017-01-26T02:18:41.329Z,1022.04
2017-01-26T02:19:41.301Z,1022.03
2017-01-26T02:20:41.269Z,1021.99
2017-01-26T02:21:41.242Z,1021.98
2017-01-26T02:22:41.213Z,1021.98
2017-01-26T02:23:41.181Z,1021.98
2017-01-26T02:24:41.154Z,1022.01
2017-01-26T02:25:41.124Z,1021.98
2017-01-26T02:26:41.093Z,1021.94
2017-01-26T02:27:41.068Z,1021.94
2017-01-26T02:28:41.035Z,1021.88
2017-01-26T02:29:41.003Z,1021.92
2017-01-26T02:30:40.977Z,1021.92
2017-01-26T02:31:40.948Z,1021.93
2017-01-26T02:32:40.920Z,1021.87
2017-01-26T02:33:40.888Z,1021.95
2017-01-26T02:34:40.860Z,1021.94
2017-01-26T02:35:40.828Z,1021.85
2017-01-26T02:36:40.799Z,1021.93
2017-01-26T02:37:40.770Z,1021.97
2017-01-26T02:38:40.740Z,1022.01
2017-01-26T02:39:40.712Z,1021.93
2017-01-26T02:40:40.681Z,1021.92
2017-01-26T02:41:40.649Z,1021.9
2017-01-26T02:42:40.622Z,1021.88
2017-01-26T02:43:40.595Z,1021.86
2017-01-26T02:44:40.562Z,1021.89
2017-01-26T02:45:40.532Z,1021.89
2017-01-26T02:46:40.508Z,1021.87
2017-01-26T02:47:40.474Z,1021.88
2017-01-26T02:48:40.444Z,1021.87
2017-01-26T02:49:40.415Z,1021.94
2017-01-26T02:50:40.385Z,1021.98
2017-01-26T02:51:40.359Z,1021.92
2017-01-26T02:52:40.325Z,1021.93
2017-01-26T02:53:40.296Z,1021.93
2017-01-26T02:54:40.266Z,1021.88
2017-01-26T02:55:40.238Z,1021.86
2017-01-26T02:56:40.208Z,1021.88
2017-01-26T02:57:40.179Z,1021.92
2017-01-26T02:58:40.149Z,1021.96
2017-01-26T02:59:40.123Z,1021.91
2017-01-26T03:00:40.089Z,1022
2017-01-26T03:01:40.064Z,1021.91
2017-01-26T03:02:40.031Z,1021.94
2017-01-26T03:03:39.999Z,1021.9
2017-01-26T03:04:39.970Z,1021.94
2017-01-26T03:05:39.941Z,1021.89
2017-01-26T03:06:39.912Z,1021.92
2017-01-26T03:07:39.881Z,1021.9
2017-01-26T03:08:39.851Z,1021.94
2017-01-26T03:09:39.825Z,1021.92
2017-01-26T03:10:39.792Z,1021.91
2017-01-26T03:11:39.762Z,1021.9
2017-01-26T03:12:39.732Z,1021.89
2017-01-26T03:13:39.704Z,1021.82
2017-01-26T03:14:39.669Z,1021.82
2017-01-26T03:15:39.641Z,1021.75
2017-01-26T03:16:39.613Z,1021.77
2017-01-26T03:17:39.582Z,1021.74
2017-01-26T03:18:39.555Z,1021.77
2017-01-26T03:19:39.875Z,1021.78
2017-01-26T03:20:39.494Z,1021.72
2017-01-26T03:21:39.467Z,1021.68
2017-01-26T03:22:39.432Z,1021.67
2017-01-26T03:23:39.404Z,1021.67
2017-01-26T03:24:39.375Z,1021.71
2017-01-26T03:25:39.348Z,1021.72
2017-01-26T03:26:39.317Z,1021.75
2017-01-26T03:27:39.285Z,1021.78
2017-01-26T03:28:39.257Z,1021.73
2017-01-26T03:29:39.228Z,1021.73
2017-01-26T03:30:39.201Z,1021.7
2017-01-26T03:31:39.171Z,1021.71
2017-01-26T03:32:39.137Z,1021.65
2017-01-26T03:33:39.108Z,1021.69
2017-01-26T03:34:39.078Z,1021.76
2017-01-26T03:35:39.050Z,1021.71
2017-01-26T03:36:39.019Z,1021.71
2017-01-26T03:37:38.990Z,1021.69
2017-01-26T03:38:38.966Z,1021.66
2017-01-26T03:39:38.926Z,1021.64
2017-01-26T03:40:38.901Z,1021.61
2017-01-26T03:41:38.871Z,1021.63
2017-01-26T03:42:38.847Z,1021.6
2017-01-26T03:43:38.811Z,1021.6
2017-01-26T03:44:39.333Z,1021.63
2017-01-26T03:45:38.756Z,1021.6
2017-01-26T03:46:38.724Z,1021.6
2017-01-26T03:47:38.697Z,1021.61
2017-01-26T03:48:38.667Z,1021.62
2017-01-26T03:49:38.641Z,1021.61
2017-01-26T03:50:38.606Z,1021.57
2017-01-26T03:51:38.574Z,1021.6
2017-01-26T03:52:38.550Z,1021.54
2017-01-26T03:53:38.516Z,1021.54
2017-01-26T03:54:38.488Z,1021.56
2017-01-26T03:55:38.460Z,1021.51
2017-01-26T03:56:38.430Z,1021.49
2017-01-26T03:57:38.401Z,1021.52
2017-01-26T03:58:38.372Z,1021.51
2017-01-26T03:59:38.341Z,1021.49
2017-01-26T04:00:38.314Z,1021.45
2017-01-26T04:01:38.284Z,1021.48
2017-01-26T04:02:38.251Z,1021.45
2017-01-26T04:03:38.220Z,1021.45
2017-01-26T04:04:38.192Z,1021.42
2017-01-26T04:05:38.161Z,1021.44
2017-01-26T04:06:38.130Z,1021.42
2017-01-26T04:07:38.100Z,1021.42
2017-01-26T04:08:38.077Z,1021.4
2017-01-26T04:09:38.044Z,1021.4
2017-01-26T04:10:38.015Z,1021.39
2017-01-26T04:11:37.984Z,1021.39
2017-01-26T04:12:37.952Z,1021.31
2017-01-26T04:13:37.975Z,1021.3
2017-01-26T04:14:37.897Z,1021.34
2017-01-26T04:15:37.865Z,1021.33
2017-01-26T04:16:37.835Z,1021.3
2017-01-26T04:17:37.805Z,1021.33
2017-01-26T04:18:37.777Z,1021.3
2017-01-26T04:19:37.748Z,1021.35
2017-01-26T04:20:37.715Z,1021.31
2017-01-26T04:21:37.687Z,1021.32
2017-01-26T04:22:37.657Z,1021.28
2017-01-26T04:23:37.625Z,1021.28
2017-01-26T04:24:37.648Z,1021.32
2017-01-26T04:25:37.567Z,1021.3
2017-01-26T04:26:37.537Z,1021.34
2017-01-26T04:27:37.510Z,1021.35
2017-01-26T04:28:37.477Z,1021.3
2017-01-26T04:29:37.450Z,1021.25
2017-01-26T04:30:37.422Z,1021.3
2017-01-26T04:31:37.390Z,1021.26
2017-01-26T04:32:37.361Z,1021.25
2017-01-26T04:33:37.329Z,1021.22
2017-01-26T04:34:37.302Z,1021.22
2017-01-26T04:35:37.271Z,1021.24
2017-01-26T04:36:37.241Z,1021.25
2017-01-26T04:37:37.210Z,1021.24
2017-01-26T04:38:37.181Z,1021.28
2017-01-26T04:39:37.198Z,1021.25
2017-01-26T04:40:37.120Z,1021.24
2017-01-26T04:41:37.091Z,1021.25
2017-01-26T04:42:37.060Z,1021.18
2017-01-26T04:43:37.030Z,1021.17
2017-01-26T04:44:37.001Z,1021.2
2017-01-26T04:45:36.971Z,1021.19
2017-01-26T04:46:36.941Z,1021.16
2017-01-26T04:47:36.913Z,1021.16
2017-01-26T04:48:36.885Z,1021.13
2017-01-26T04:49:36.851Z,1021.06
2017-01-26T04:50:36.824Z,1021.05
2017-01-26T04:51:36.794Z,1021.07
2017-01-26T04:52:36.761Z,1021.09
2017-01-26T04:53:36.734Z,1021.1
2017-01-26T04:54:36.701Z,1021.06
2017-01-26T04:55:36.672Z,1021.06
2017-01-26T04:56:36.645Z,1021.06
2017-01-26T04:57:36.614Z,1021.04
2017-01-26T04:58:36.583Z,1020.99
2017-01-26T04:59:36.554Z,1020.97
2017-01-26T05:00:36.522Z,1020.94
2017-01-26T05:01:36.494Z,1020.99
2017-01-26T05:02:36.464Z,1020.95
2017-01-26T05:03:36.433Z,1020.97
2017-01-26T05:04:36.404Z,1020.91
2017-01-26T05:05:36.374Z,1020.9
2017-01-26T05:06:36.343Z,1020.9
2017-01-26T05:07:36.314Z,1020.89
2017-01-26T05:08:36.288Z,1020.88
2017-01-26T05:09:36.255Z,1020.85
2017-01-26T05:10:36.226Z,1020.82
2017-01-26T05:11:36.194Z,1020.85
2017-01-26T05:12:36.165Z,1020.77
2017-01-26T05:13:36.136Z,1020.75
2017-01-26T05:14:36.104Z,1020.8
2017-01-26T05:15:36.074Z,1020.81
2017-01-26T05:16:36.045Z,1020.76
2017-01-26T05:17:36.014Z,1020.81
2017-01-26T05:18:35.984Z,1020.81
2017-01-26T05:19:35.953Z,1020.8
2017-01-26T05:20:35.925Z,1020.77
2017-01-26T05:21:36.196Z,1020.75
2017-01-26T05:22:35.872Z,1020.78
2017-01-26T05:23:35.836Z,1020.78
2017-01-26T05:24:35.805Z,1020.74
2017-01-26T05:25:35.775Z,1020.7
2017-01-26T05:26:35.744Z,1020.67
2017-01-26T05:27:35.715Z,1020.69
2017-01-26T05:28:35.686Z,1020.67
2017-01-26T05:29:35.654Z,1020.71
2017-01-26T05:30:35.627Z,1020.68
2017-01-26T05:31:35.596Z,1020.68
2017-01-26T05:32:35.564Z,1020.68
2017-01-26T05:33:35.537Z,1020.65
2017-01-26T05:34:35.506Z,1020.66
2017-01-26T05:35:35.479Z,1020.66
2017-01-26T05:36:35.444Z,1020.6
2017-01-26T05:37:35.415Z,1020.59
2017-01-26T05:38:35.388Z,1020.57
2017-01-26T05:39:35.356Z,1020.61
2017-01-26T05:40:35.326Z,1020.56
2017-01-26T05:41:35.292Z,1020.54
2017-01-26T05:42:35.265Z,1020.54
2017-01-26T05:43:35.235Z,1020.53
2017-01-26T05:44:35.205Z,1020.55
2017-01-26T05:45:35.175Z,1020.56
2017-01-26T05:46:35.147Z,1020.56
2017-01-26T05:47:35.118Z,1020.54
2017-01-26T05:48:35.083Z,1020.55
2017-01-26T05:49:35.056Z,1020.56
2017-01-26T05:50:35.025Z,1020.55
2017-01-26T05:51:34.994Z,1020.53
2017-01-26T05:52:34.965Z,1020.56
2017-01-26T05:53:34.938Z,1020.51
2017-01-26T05:54:34.905Z,1020.52
2017-01-26T05:55:34.876Z,1020.56
2017-01-26T05:56:34.844Z,1020.52
2017-01-26T05:57:34.816Z,1020.52
2017-01-26T05:58:34.784Z,1020.54
2017-01-26T05:59:34.755Z,1020.54
2017-01-26T06:00:34.723Z,1020.53
2017-01-26T06:01:34.702Z,1020.57
2017-01-26T06:02:34.663Z,1020.52
2017-01-26T06:03:34.634Z,1020.5
2017-01-26T06:04:34.605Z,1020.5
2017-01-26T06:05:34.576Z,1020.5
2017-01-26T06:06:34.546Z,1020.5
2017-01-26T06:07:34.515Z,1020.52
2017-01-26T06:08:34.489Z,1020.5
2017-01-26T06:09:34.455Z,1020.54
2017-01-26T06:10:34.423Z,1020.55
2017-01-26T06:11:34.396Z,1020.55
2017-01-26T06:12:34.366Z,1020.52
2017-01-26T06:13:34.338Z,1020.51
2017-01-26T06:14:34.305Z,1020.48
2017-01-26T06:15:34.277Z,1020.52
2017-01-26T06:16:34.246Z,1020.55
2017-01-26T06:17:34.216Z,1020.55
2017-01-26T06:18:34.186Z,1020.52
2017-01-26T06:19:34.157Z,1020.49
2017-01-26T06:20:34.126Z,1020.52
2017-01-26T06:21:34.094Z,1020.55
2017-01-26T06:22:34.065Z,1020.56
2017-01-26T06:23:34.036Z,1020.55
2017-01-26T06:24:34.005Z,1020.54
2017-01-26T06:25:33.976Z,1020.59
2017-01-26T06:26:33.947Z,1020.58
2017-01-26T06:27:33.915Z,1020.56
2017-01-26T06:28:33.884Z,1020.54
2017-01-26T06:29:33.857Z,1020.55
2017-01-26T06:30:33.826Z,1020.55
2017-01-26T06:31:33.794Z,1020.58
2017-01-26T06:32:33.768Z,1020.54
2017-01-26T06:33:33.735Z,1020.51
2017-01-26T06:34:33.705Z,1020.53
2017-01-26T06:35:33.673Z,1020.52
2017-01-26T06:36:33.645Z,1020.53
2017-01-26T06:37:33.615Z,1020.5
2017-01-26T06:38:33.583Z,1020.5
2017-01-26T06:39:33.553Z,1020.52
2017-01-26T06:40:33.523Z,1020.5
2017-01-26T06:41:33.496Z,1020.54
2017-01-26T06:42:33.463Z,1020.54
2017-01-26T06:43:33.433Z,1020.53
2017-01-26T06:44:33.405Z,1020.47
2017-01-26T06:45:33.374Z,1020.44
2017-01-26T06:46:33.343Z,1020.44
2017-01-26T06:47:33.314Z,1020.39
2017-01-26T06:48:33.286Z,1020.42
2017-01-26T06:49:33.255Z,1020.4
2017-01-26T06:50:33.226Z,1020.38
2017-01-26T06:51:33.193Z,1020.37
2017-01-26T06:52:33.164Z,1020.36
2017-01-26T06:53:33.139Z,1020.36
2017-01-26T06:54:33.104Z,1020.4
2017-01-26T06:55:33.076Z,1020.39
2017-01-26T06:56:33.043Z,1020.43
2017-01-26T06:57:33.017Z,1020.41
2017-01-26T06:58:32.982Z,1020.39
2017-01-26T06:59:32.952Z,1020.42
2017-01-26T07:00:32.920Z,1020.42
2017-01-26T07:01:32.895Z,1020.42
2017-01-26T07:02:32.865Z,1020.39
2017-01-26T07:03:32.832Z,1020.42
2017-01-26T07:04:32.806Z,1020.36
2017-01-26T07:05:32.776Z,1020.37
2017-01-26T07:06:32.741Z,1020.42
2017-01-26T07:07:32.720Z,1020.43
2017-01-26T07:08:32.707Z,1020.43
2017-01-26T07:09:32.650Z,1020.47
2017-01-26T07:10:32.622Z,1020.48
2017-01-26T07:11:32.593Z,1020.48
2017-01-26T07:12:32.561Z,1020.48
2017-01-26T07:13:32.531Z,1020.46
2017-01-26T07:14:32.501Z,1020.44
2017-01-26T07:15:32.469Z,1020.42
2017-01-26T07:16:32.440Z,1020.43
2017-01-26T07:17:32.415Z,1020.45
2017-01-26T07:18:32.380Z,1020.47
2017-01-26T07:19:32.349Z,1020.48
2017-01-26T07:20:32.319Z,1020.46
2017-01-26T07:21:32.288Z,1020.5
2017-01-26T07:22:32.259Z,1020.51
2017-01-26T07:23:32.228Z,1020.44
2017-01-26T07:24:32.201Z,1020.5
2017-01-26T07:25:32.168Z,1020.45
2017-01-26T07:26:32.138Z,1020.47
2017-01-26T07:27:32.112Z,1020.51
2017-01-26T07:28:32.077Z,1020.48
2017-01-26T07:29:32.049Z,1020.53
2017-01-26T07:30:32.022Z,1020.58
2017-01-26T07:31:31.986Z,1020.55
2017-01-26T07:32:31.957Z,1020.59
2017-01-26T07:33:31.928Z,1020.55
2017-01-26T07:34:31.897Z,1020.59
2017-01-26T07:35:31.865Z,1020.5
2017-01-26T07:36:31.847Z,1020.52
2017-01-26T07:37:31.807Z,1020.55
2017-01-26T07:38:31.782Z,1020.53
2017-01-26T07:39:31.749Z,1020.59
2017-01-26T07:40:31.717Z,1020.61
2017-01-26T07:41:31.689Z,1020.61
2017-01-26T07:42:31.661Z,1020.59
2017-01-26T07:43:31.630Z,1020.62
2017-01-26T07:44:31.598Z,1020.62
2017-01-26T07:45:31.569Z,1020.65
2017-01-26T07:46:31.540Z,1020.69
2017-01-26T07:47:31.511Z,1020.72
2017-01-26T07:48:31.482Z,1020.67
2017-01-26T07:49:31.455Z,1020.71
2017-01-26T07:50:31.423Z,1020.66
2017-01-26T07:51:31.398Z,1020.66
2017-01-26T07:52:31.367Z,1020.68
2017-01-26T07:53:31.337Z,1020.68
2017-01-26T07:54:31.317Z,1020.69
2017-01-26T07:55:31.282Z,1020.65
2017-01-26T07:56:31.252Z,1020.68
2017-01-26T07:57:31.227Z,1020.69
2017-01-26T07:58:31.197Z,1020.7
2017-01-26T07:59:31.170Z,1020.71
2017-01-26T08:00:31.147Z,1020.7
2017-01-26T08:01:31.112Z,1020.7
2017-01-26T08:02:31.089Z,1020.71
2017-01-26T08:03:31.064Z,1020.67
2017-01-26T08:04:31.032Z,1020.67
2017-01-26T08:05:31.005Z,1020.65
2017-01-26T08:06:30.980Z,1020.68
2017-01-26T08:07:30.950Z,1020.64
2017-01-26T08:08:30.926Z,1020.61
2017-01-26T08:09:30.897Z,1020.67
2017-01-26T08:10:30.869Z,1020.63
2017-01-26T08:11:30.842Z,1020.65
2017-01-26T08:12:30.815Z,1020.62
2017-01-26T08:13:30.787Z,1020.64
2017-01-26T08:14:30.762Z,1020.62
2017-01-26T08:15:30.741Z,1020.66
2017-01-26T08:16:30.710Z,1020.66
2017-01-26T08:17:30.684Z,1020.67
2017-01-26T08:18:30.657Z,1020.6
2017-01-26T08:19:30.632Z,1020.62
2017-01-26T08:20:30.607Z,1020.65
2017-01-26T08:21:30.586Z,1020.63
2017-01-26T08:22:30.562Z,1020.62
2017-01-26T08:23:30.535Z,1020.63
2017-01-26T08:24:30.506Z,1020.58
2017-01-26T08:25:30.480Z,1020.58
2017-01-26T08:26:30.456Z,1020.62
2017-01-26T08:27:30.436Z,1020.67
2017-01-26T08:28:30.407Z,1020.66
2017-01-26T08:29:30.416Z,1020.65
2017-01-26T08:30:30.361Z,1020.69
2017-01-26T08:31:30.337Z,1020.73
2017-01-26T08:32:30.312Z,1020.71
2017-01-26T08:33:30.289Z,1020.69
2017-01-26T08:34:30.266Z,1020.7
2017-01-26T08:35:30.241Z,1020.71
2017-01-26T08:36:30.225Z,1020.7
2017-01-26T08:37:30.194Z,1020.71
2017-01-26T08:38:30.174Z,1020.67
2017-01-26T08:39:30.149Z,1020.7
2017-01-26T08:40:30.126Z,1020.73
2017-01-26T08:41:30.100Z,1020.66
2017-01-26T08:42:30.080Z,1020.72
2017-01-26T08:43:30.053Z,1020.79
2017-01-26T08:44:30.039Z,1020.77
2017-01-26T08:45:30.014Z,1020.78
2017-01-26T08:46:29.991Z,1020.8
2017-01-26T08:47:29.967Z,1020.79
2017-01-26T08:48:29.940Z,1020.79
2017-01-26T08:49:29.917Z,1020.74
2017-01-26T08:50:29.897Z,1020.81
2017-01-26T08:51:29.881Z,1020.77
2017-01-26T08:52:29.849Z,1020.74
2017-01-26T08:53:29.824Z,1020.76
2017-01-26T08:54:29.802Z,1020.74
2017-01-26T08:55:29.780Z,1020.73
2017-01-26T08:56:29.759Z,1020.72
2017-01-26T08:57:29.733Z,1020.75
2017-01-26T08:58:29.712Z,1020.71
2017-01-26T08:59:29.691Z,1020.72
2017-01-26T09:00:29.666Z,1020.74
2017-01-26T09:01:29.641Z,1020.71
2017-01-26T09:02:29.620Z,1020.71
2017-01-26T09:03:29.594Z,1020.68
2017-01-26T09:04:29.575Z,1020.73
2017-01-26T09:05:29.552Z,1020.67
2017-01-26T09:06:29.526Z,1020.66
2017-01-26T09:07:29.506Z,1020.61
2017-01-26T09:08:29.482Z,1020.6
2017-01-26T09:09:29.458Z,1020.67
2017-01-26T09:10:29.436Z,1020.71
2017-01-26T09:11:29.412Z,1020.65
2017-01-26T09:12:29.386Z,1020.61
2017-01-26T09:13:29.364Z,1020.63
2017-01-26T09:14:29.340Z,1020.63
2017-01-26T09:15:29.316Z,1020.62
2017-01-26T09:16:29.294Z,1020.63
2017-01-26T09:17:29.293Z,1020.62
2017-01-26T09:18:29.244Z,1020.55
2017-01-26T09:19:29.217Z,1020.57
2017-01-26T09:20:29.193Z,1020.58
2017-01-26T09:21:29.169Z,1020.6
2017-01-26T09:22:29.142Z,1020.53
2017-01-26T09:23:29.124Z,1020.52
2017-01-26T09:24:29.090Z,1020.55
2017-01-26T09:25:29.065Z,1020.54
2017-01-26T09:26:29.037Z,1020.5
2017-01-26T09:27:29.015Z,1020.56
2017-01-26T09:28:28.986Z,1020.58
2017-01-26T09:29:28.961Z,1020.59
2017-01-26T09:30:28.935Z,1020.55
2017-01-26T09:31:28.909Z,1020.54
2017-01-26T09:32:28.880Z,1020.5
2017-01-26T09:33:28.859Z,1020.49
2017-01-26T09:34:28.825Z,1020.5
2017-01-26T09:35:28.801Z,1020.52
2017-01-26T09:36:28.774Z,1020.52
2017-01-26T09:37:28.744Z,1020.52
2017-01-26T09:38:28.720Z,1020.52
2017-01-26T09:39:28.692Z,1020.58
2017-01-26T09:40:28.664Z,1020.52
2017-01-26T09:41:28.638Z,1020.56
2017-01-26T09:42:28.614Z,1020.57
2017-01-26T09:43:28.589Z,1020.59
2017-01-26T09:44:28.556Z,1020.62
2017-01-26T09:45:28.532Z,1020.59
2017-01-26T09:46:28.503Z,1020.63
2017-01-26T09:47:28.477Z,1020.59
2017-01-26T09:48:28.445Z,1020.55
2017-01-26T09:49:28.417Z,1020.58
2017-01-26T09:50:28.391Z,1020.51
2017-01-26T09:51:28.363Z,1020.44
2017-01-26T09:52:28.335Z,1020.46
2017-01-26T09:53:28.313Z,1020.43
2017-01-26T09:54:28.284Z,1020.44
2017-01-26T09:55:28.252Z,1020.41
2017-01-26T09:56:28.225Z,1020.36
2017-01-26T09:57:28.198Z,1020.43
2017-01-26T09:58:28.200Z,1020.46
2017-01-26T09:59:28.143Z,1020.46
2017-01-26T10:00:28.120Z,1020.44
2017-01-26T10:01:28.086Z,1020.42
2017-01-26T10:02:28.064Z,1020.4
2017-01-26T10:03:28.032Z,1020.39
2017-01-26T10:04:28.008Z,1020.37
2017-01-26T10:05:27.974Z,1020.4
2017-01-26T10:06:27.950Z,1020.38
2017-01-26T10:07:27.924Z,1020.35
2017-01-26T10:08:27.895Z,1020.4
2017-01-26T10:09:27.866Z,1020.34
2017-01-26T10:10:27.842Z,1020.4
2017-01-26T10:11:27.810Z,1020.33
2017-01-26T10:12:27.786Z,1020.37
2017-01-26T10:13:27.757Z,1020.35
2017-01-26T10:14:27.723Z,1020.31
2017-01-26T10:15:27.699Z,1020.35
2017-01-26T10:16:27.669Z,1020.32
2017-01-26T10:17:27.646Z,1020.29
2017-01-26T10:18:27.615Z,1020.31
2017-01-26T10:19:27.587Z,1020.28
2017-01-26T10:20:27.561Z,1020.28
2017-01-26T10:21:27.533Z,1020.22
2017-01-26T10:22:27.506Z,1020.2
2017-01-26T10:23:27.477Z,1020.23
2017-01-26T10:24:27.453Z,1020.23
2017-01-26T10:25:27.422Z,1020.24
2017-01-26T10:26:27.391Z,1020.2
2017-01-26T10:27:27.369Z,1020.17
2017-01-26T10:28:27.340Z,1020.15
2017-01-26T10:29:27.314Z,1020.12
2017-01-26T10:30:27.281Z,1020.12
2017-01-26T10:31:27.259Z,1020.11
2017-01-26T10:32:27.226Z,1020.13
2017-01-26T10:33:27.206Z,1020.06
2017-01-26T10:34:27.173Z,1020.08
2017-01-26T10:35:27.147Z,1020.08
2017-01-26T10:36:27.175Z,1020.05
2017-01-26T10:37:27.091Z,1020.11
2017-01-26T10:38:27.364Z,1020.06
2017-01-26T10:39:27.036Z,1020.03
2017-01-26T10:40:27.007Z,1020.02
2017-01-26T10:41:26.983Z,1020.04
2017-01-26T10:42:26.953Z,1020.04
2017-01-26T10:43:26.977Z,1020.01
2017-01-26T10:44:26.899Z,1020.01
2017-01-26T10:45:26.870Z,1020.03
2017-01-26T10:46:26.848Z,1020.02
2017-01-26T10:47:26.815Z,1020.01
2017-01-26T10:48:26.789Z,1019.99
2017-01-26T10:49:26.759Z,1019.91
2017-01-26T10:50:26.732Z,1019.98
2017-01-26T10:51:26.705Z,1019.94
2017-01-26T10:52:26.677Z,1019.96
2017-01-26T10:53:26.650Z,1019.93
2017-01-26T10:54:26.622Z,1019.94
2017-01-26T10:55:26.593Z,1019.93
2017-01-26T10:56:26.566Z,1019.92
2017-01-26T10:57:26.562Z,1019.97
2017-01-26T10:58:26.513Z,1019.95
2017-01-26T10:59:26.481Z,1019.94
2017-01-26T11:00:26.457Z,1019.89
2017-01-26T11:01:26.427Z,1019.93
2017-01-26T11:02:26.404Z,1019.94
2017-01-26T11:03:26.372Z,1019.91
2017-01-26T11:04:26.346Z,1019.95
2017-01-26T11:05:26.865Z,1019.96
2017-01-26T11:06:26.291Z,1019.94
2017-01-26T11:07:26.264Z,1019.93
2017-01-26T11:08:26.235Z,1019.86
2017-01-26T11:09:26.205Z,1019.91
2017-01-26T11:10:26.181Z,1019.91
2017-01-26T11:11:26.152Z,1019.83
2017-01-26T11:12:26.124Z,1019.86
2017-01-26T11:13:26.096Z,1019.87
2017-01-26T11:14:26.069Z,1019.87
2017-01-26T11:15:26.041Z,1019.87
2017-01-26T11:16:26.013Z,1019.83
2017-01-26T11:17:25.991Z,1019.86
2017-01-26T11:18:25.959Z,1019.85
2017-01-26T11:19:25.932Z,1019.83
2017-01-26T11:20:25.903Z,1019.83
2017-01-26T11:21:25.877Z,1019.82
2017-01-26T11:22:25.848Z,1019.8
2017-01-26T11:23:25.820Z,1019.79
2017-01-26T11:24:25.796Z,1019.74
2017-01-26T11:25:25.766Z,1019.74
2017-01-26T11:26:25.755Z,1019.78
2017-01-26T11:27:25.711Z,1019.74
2017-01-26T11:28:25.684Z,1019.72
2017-01-26T11:29:25.658Z,1019.76
2017-01-26T11:30:25.629Z,1019.74
2017-01-26T11:31:25.602Z,1019.74
2017-01-26T11:32:25.571Z,1019.75
2017-01-26T11:33:25.551Z,1019.75
2017-01-26T11:34:25.518Z,1019.78
2017-01-26T11:35:25.492Z,1019.77
2017-01-26T11:36:25.464Z,1019.74
2017-01-26T11:37:25.437Z,1019.73
2017-01-26T11:38:25.409Z,1019.68
2017-01-26T11:39:25.385Z,1019.68
2017-01-26T11:40:25.353Z,1019.64
2017-01-26T11:41:25.327Z,1019.64
2017-01-26T11:42:25.298Z,1019.67
2017-01-26T11:43:25.322Z,1019.58
2017-01-26T11:44:25.248Z,1019.6
2017-01-26T11:45:25.216Z,1019.63
2017-01-26T11:46:25.194Z,1019.6
2017-01-26T11:47:25.162Z,1019.56
2017-01-26T11:48:25.136Z,1019.56
2017-01-26T11:49:25.111Z,1019.49
2017-01-26T11:50:25.079Z,1019.52
2017-01-26T11:51:25.050Z,1019.47
2017-01-26T11:52:25.030Z,1019.49
2017-01-26T11:53:24.998Z,1019.44
2017-01-26T11:54:24.973Z,1019.47
2017-01-26T11:55:24.942Z,1019.5
2017-01-26T11:56:24.915Z,1019.44
2017-01-26T11:57:24.887Z,1019.45
2017-01-26T11:58:24.863Z,1019.36
2017-01-26T11:59:24.826Z,1019.39
2017-01-26T12:00:24.804Z,1019.52
2017-01-26T12:01:24.778Z,1019.41
2017-01-26T12:02:24.751Z,1019.47
2017-01-26T12:03:24.726Z,1019.41
2017-01-26T12:04:24.699Z,1019.39
2017-01-26T12:05:24.669Z,1019.38
2017-01-26T12:06:24.643Z,1019.33
2017-01-26T12:07:24.616Z,1019.33
2017-01-26T12:08:24.586Z,1019.31